createdAt,value
2024-03-05T00:00:37.259Z,34.90
2024-03-05T00:03:30.939Z,35.90
2024-03-05T00:06:05.025Z,35.30
2024-03-05T00:08:38.885Z,34.40
2024-03-05T00:11:12.812Z,34.50
2024-03-05T00:13:47.020Z,34.40
2024-03-05T00:16:20.963Z,34.30
2024-03-05T00:18:55.593Z,31.80
2024-03-05T00:21:29.953Z,34.80
2024-03-05T00:24:03.817Z,33.10
2024-03-05T00:26:38.313Z,33.60
2024-03-05T00:29:11.795Z,35.10
2024-03-05T00:31:45.548Z,36.00
2024-03-05T00:34:19.183Z,32.30
2024-03-05T00:36:53.378Z,37.80
2024-03-05T00:39:27.636Z,31.90
2024-03-05T00:42:01.440Z,33.90
2024-03-05T00:44:35.293Z,31.80
2024-03-05T00:47:09.851Z,37.10
2024-03-05T00:49:44.333Z,37.30
2024-03-05T00:52:20.377Z,37.10
2024-03-05T00:55:06.001Z,36.30
2024-03-05T00:57:40.316Z,34.50
2024-03-05T01:00:22.588Z,34.60
2024-03-05T01:03:00.878Z,34.40
2024-03-05T01:05:35.072Z,36.10
2024-03-05T01:08:16.024Z,35.70
2024-03-05T01:10:50.289Z,33.80
2024-03-05T01:13:26.944Z,33.70
2024-03-05T01:16:00.984Z,36.10
2024-03-05T01:18:35.716Z,39.60
2024-03-05T01:21:10.996Z,39.60
2024-03-05T01:23:48.001Z,40.00
2024-03-05T01:26:26.384Z,39.00
2024-03-05T01:29:19.326Z,36.80
2024-03-05T01:31:58.271Z,36.50
2024-03-05T01:34:32.700Z,36.30
2024-03-05T01:37:06.612Z,35.80
2024-03-05T01:39:40.818Z,36.80
2024-03-05T01:42:15.380Z,35.20
2024-03-05T01:44:49.189Z,35.00
2024-03-05T01:47:23.564Z,35.40
2024-03-05T01:49:58.267Z,35.20
2024-03-05T01:52:32.616Z,36.90
2024-03-05T01:55:10.098Z,33.40
2024-03-05T01:57:43.829Z,34.80
2024-03-05T02:00:22.499Z,36.10
2024-03-05T02:02:57.119Z,36.30
2024-03-05T02:05:31.051Z,35.10
2024-03-05T02:08:05.766Z,35.50
2024-03-05T02:10:39.635Z,37.60
2024-03-05T02:13:15.480Z,41.10
2024-03-05T02:15:50.656Z,38.40
2024-03-05T02:18:24.233Z,38.40
2024-03-05T02:21:03.333Z,37.70
2024-03-05T02:23:36.901Z,39.80
2024-03-05T02:26:11.183Z,39.50
2024-03-05T02:28:45.324Z,39.30
2024-03-05T02:31:19.646Z,38.30
2024-03-05T02:33:55.060Z,38.30
2024-03-05T02:36:28.878Z,39.70
2024-03-05T02:39:02.556Z,37.50
2024-03-05T02:41:36.917Z,36.60
2024-03-05T02:44:10.620Z,36.60
2024-03-05T02:46:44.358Z,38.00
2024-03-05T02:49:18.383Z,38.00
2024-03-05T02:51:52.786Z,39.90
2024-03-05T02:54:27.047Z,40.30
2024-03-05T02:57:01.267Z,39.40
2024-03-05T02:59:34.816Z,38.50
2024-03-05T03:02:09.102Z,38.30
2024-03-05T03:04:43.491Z,38.10
2024-03-05T03:07:18.728Z,40.30
2024-03-05T03:09:52.669Z,39.10
2024-03-05T03:12:27.504Z,35.10
2024-03-05T03:15:01.031Z,37.70
2024-03-05T03:17:34.758Z,36.60
2024-03-05T03:20:11.398Z,38.90
2024-03-05T03:22:45.667Z,38.60
2024-03-05T03:25:20.015Z,42.50
2024-03-05T03:27:53.826Z,40.80
2024-03-05T03:30:28.569Z,41.20
2024-03-05T03:33:02.306Z,41.20
2024-03-05T03:35:36.530Z,45.90
2024-03-05T03:38:10.616Z,44.60
2024-03-05T03:40:45.874Z,43.40
2024-03-05T03:43:19.672Z,40.90
2024-03-05T03:45:53.821Z,40.40
2024-03-05T03:48:27.833Z,41.20
2024-03-05T03:51:01.801Z,42.60
2024-03-05T03:53:35.492Z,42.70
2024-03-05T03:56:10.859Z,40.70
2024-03-05T03:58:45.668Z,39.40
2024-03-05T04:01:20.777Z,41.00
2024-03-05T04:03:54.408Z,36.80
2024-03-05T04:06:30.212Z,41.30
2024-03-05T04:09:04.718Z,41.90
2024-03-05T04:11:39.062Z,41.30
2024-03-05T04:14:12.791Z,36.80
2024-03-05T04:16:46.766Z,39.00
2024-03-05T04:19:20.888Z,37.10
2024-03-05T04:21:59.619Z,38.20
2024-03-05T04:24:37.703Z,37.70
2024-03-05T04:27:13.670Z,40.10
2024-03-05T04:29:48.870Z,37.10
2024-03-05T04:32:22.521Z,38.00
2024-03-05T04:35:02.984Z,34.70
2024-03-05T04:37:37.270Z,37.30
2024-03-05T04:40:12.982Z,36.00
2024-03-05T04:42:46.732Z,36.40
2024-03-05T04:45:20.902Z,36.60
2024-03-05T04:47:54.913Z,36.00
2024-03-05T04:50:28.780Z,37.30
2024-03-05T04:53:02.472Z,37.10
2024-03-05T04:55:37.649Z,36.20
2024-03-05T04:58:11.726Z,39.50
2024-03-05T05:00:46.239Z,37.60
2024-03-05T05:03:19.950Z,36.40
2024-03-05T05:05:56.564Z,36.00
2024-03-05T05:08:31.758Z,36.60
2024-03-05T05:11:06.177Z,38.90
2024-03-05T05:13:40.350Z,39.20
2024-03-05T05:16:14.759Z,38.20
2024-03-05T05:18:48.332Z,34.90
2024-03-05T05:21:21.754Z,37.10
2024-03-05T05:23:55.508Z,36.30
2024-03-05T05:26:29.454Z,35.60
2024-03-05T05:29:03.387Z,35.40
2024-03-05T05:31:38.432Z,37.90
2024-03-05T05:34:14.908Z,34.90
2024-03-05T05:36:48.318Z,36.90
2024-03-05T05:39:26.092Z,35.20
2024-03-05T05:41:59.931Z,35.10
2024-03-05T05:44:34.148Z,35.10
2024-03-05T05:47:12.337Z,33.80
2024-03-05T05:49:46.360Z,32.60
2024-03-05T05:52:23.600Z,31.60
2024-03-05T05:54:58.375Z,31.00
2024-03-05T05:57:32.309Z,31.80
2024-03-05T06:00:10.184Z,31.20
2024-03-05T06:02:47.630Z,31.40
2024-03-05T06:05:21.864Z,29.30
2024-03-05T06:07:55.593Z,29.70
2024-03-05T06:10:31.140Z,28.10
2024-03-05T06:13:05.097Z,27.50
2024-03-05T06:15:40.430Z,25.80
2024-03-05T06:18:15.365Z,28.40
2024-03-05T06:20:49.919Z,26.80
2024-03-05T06:23:24.861Z,26.10
2024-03-05T06:25:58.682Z,24.00
2024-03-05T06:28:32.939Z,26.00
2024-03-05T06:31:07.773Z,25.20
2024-03-05T06:33:42.867Z,24.90
2024-03-05T06:36:17.304Z,24.00
2024-03-05T06:38:51.416Z,24.50
2024-03-05T06:41:26.804Z,25.50
2024-03-05T06:44:11.813Z,25.70
2024-03-05T06:46:45.674Z,25.50
2024-03-05T06:49:28.920Z,25.40
2024-03-05T06:52:17.108Z,26.10
2024-03-05T06:55:08.830Z,25.40
2024-03-05T06:57:44.149Z,24.80
2024-03-05T07:00:19.827Z,25.60
2024-03-05T07:02:54.473Z,25.90
2024-03-05T07:05:29.177Z,25.30
2024-03-05T07:08:03.924Z,25.60
2024-03-05T07:10:38.925Z,24.10
2024-03-05T07:13:13.481Z,25.40
2024-03-05T07:18:19.025Z,24.30
2024-03-05T07:20:54.370Z,24.20
2024-03-05T07:23:30.577Z,24.20
2024-03-05T07:26:07.626Z,23.60
2024-03-05T07:28:43.087Z,24.50
2024-03-05T07:31:19.395Z,25.30
2024-03-05T07:33:54.219Z,24.40
2024-03-05T07:36:28.140Z,24.30
2024-03-05T07:39:08.289Z,26.60
2024-03-05T07:41:45.776Z,26.00
2024-03-05T07:44:19.799Z,25.20
2024-03-05T07:46:53.883Z,24.00
2024-03-05T07:49:28.551Z,27.30
2024-03-05T07:52:02.474Z,24.40
2024-03-05T07:54:36.461Z,24.80
2024-03-05T07:57:11.761Z,23.50
2024-03-05T07:59:45.703Z,23.60
2024-03-05T08:02:19.375Z,22.50
2024-03-05T08:04:53.173Z,23.70
2024-03-05T08:07:27.126Z,23.80
2024-03-05T08:10:01.374Z,24.60
2024-03-05T08:12:35.087Z,22.90
2024-03-05T08:15:13.904Z,25.70
2024-03-05T08:17:48.540Z,28.30
2024-03-05T08:20:25.947Z,28.00
2024-03-05T08:22:59.920Z,28.20
2024-03-05T08:25:33.930Z,28.60
2024-03-05T08:28:08.594Z,29.10
2024-03-05T08:30:44.141Z,28.30
2024-03-05T08:33:22.256Z,29.30
2024-03-05T08:35:56.032Z,30.60
2024-03-05T08:38:31.215Z,28.90
2024-03-05T08:41:05.268Z,30.10
2024-03-05T08:43:39.933Z,31.40
2024-03-05T08:46:14.044Z,29.10
2024-03-05T08:48:47.802Z,30.30
2024-03-05T08:51:21.639Z,30.40
2024-03-05T08:53:57.080Z,31.10
2024-03-05T08:56:31.394Z,30.80
2024-03-05T08:59:07.950Z,27.30
2024-03-05T09:01:41.860Z,33.50
2024-03-05T09:04:15.601Z,29.10
2024-03-05T09:06:48.964Z,29.00
2024-03-05T09:09:22.782Z,31.00
2024-03-05T09:11:57.178Z,30.90
2024-03-05T09:14:31.747Z,30.80
2024-03-05T09:17:06.607Z,31.80
2024-03-05T09:19:40.898Z,31.80
2024-03-05T09:22:16.947Z,31.90
2024-03-05T09:24:51.985Z,30.60
2024-03-05T09:27:26.673Z,32.80
2024-03-05T09:30:00.432Z,30.20
2024-03-05T09:32:35.307Z,32.30
2024-03-05T09:35:11.428Z,31.80
2024-03-05T09:37:47.282Z,30.40
2024-03-05T09:40:22.374Z,31.20
2024-03-05T09:42:56.535Z,31.70
2024-03-05T09:45:32.508Z,32.90
2024-03-05T09:48:07.561Z,32.10
2024-03-05T09:50:41.544Z,31.00
2024-03-05T09:53:15.492Z,31.30
2024-03-05T09:55:53.131Z,30.60
2024-03-05T09:58:37.854Z,29.50
2024-03-05T10:01:12.481Z,31.40
2024-03-05T10:03:47.251Z,30.30
2024-03-05T10:06:20.798Z,32.30
2024-03-05T10:08:55.653Z,31.90
2024-03-05T10:11:29.698Z,30.70
2024-03-05T10:14:09.555Z,32.50
2024-03-05T10:16:45.497Z,31.80
2024-03-05T10:19:21.768Z,30.70
2024-03-05T10:21:55.942Z,32.90
2024-03-05T10:24:36.408Z,29.00
2024-03-05T10:27:10.462Z,31.10
2024-03-05T10:29:44.189Z,31.70
2024-03-05T10:32:22.226Z,28.50
2024-03-05T10:34:55.941Z,32.20
2024-03-05T10:37:30.225Z,29.40
2024-03-05T10:40:10.301Z,28.30
2024-03-05T10:42:44.592Z,30.20
2024-03-05T10:45:18.598Z,29.40
2024-03-05T10:47:52.628Z,29.50
2024-03-05T10:50:27.103Z,31.20
2024-03-05T10:53:03.013Z,28.20
2024-03-05T10:55:39.800Z,30.90
2024-03-05T10:58:38.786Z,29.20
2024-03-05T11:01:14.889Z,30.00
2024-03-05T11:03:50.413Z,27.90
2024-03-05T11:06:25.940Z,28.60
2024-03-05T11:09:02.237Z,29.20
2024-03-05T11:11:36.118Z,28.60
2024-03-05T11:14:11.919Z,28.80
2024-03-05T11:16:47.676Z,31.10
2024-03-05T11:19:21.335Z,31.90
2024-03-05T11:21:55.983Z,28.00
2024-03-05T11:24:30.276Z,27.70
2024-03-05T11:27:13.712Z,29.80
2024-03-05T11:29:47.921Z,28.10
2024-03-05T11:32:30.088Z,28.80
2024-03-05T11:35:05.656Z,30.50
2024-03-05T11:37:52.136Z,26.70
2024-03-05T11:40:34.528Z,28.60
2024-03-05T11:43:08.903Z,27.80
2024-03-05T11:45:50.727Z,29.50
2024-03-05T11:48:25.705Z,27.00
2024-03-05T11:51:00.660Z,27.60
2024-03-05T11:53:35.002Z,27.30
2024-03-05T11:56:13.146Z,27.30
2024-03-05T11:58:47.490Z,30.00
2024-03-05T12:01:21.408Z,28.90
2024-03-05T12:04:05.299Z,26.70
2024-03-05T12:06:40.670Z,24.10
2024-03-05T12:09:20.299Z,28.80
2024-03-05T12:12:06.831Z,27.80
2024-03-05T12:14:41.641Z,28.60
2024-03-05T12:17:15.631Z,26.60
2024-03-05T12:19:51.008Z,25.20
2024-03-05T12:22:25.825Z,27.30
2024-03-05T12:24:59.805Z,25.80
2024-03-05T12:27:35.789Z,27.00
2024-03-05T12:30:12.323Z,25.90
2024-03-05T12:32:47.853Z,26.60
2024-03-05T12:35:23.744Z,28.00
2024-03-05T12:37:57.788Z,26.80
2024-03-05T12:40:33.633Z,24.90
2024-03-05T12:43:16.303Z,26.10
2024-03-05T12:45:51.027Z,23.90
2024-03-05T12:48:33.391Z,27.10
2024-03-05T12:51:08.248Z,25.30
2024-03-05T12:53:43.369Z,25.60
2024-03-05T12:56:17.859Z,23.10
2024-03-05T12:58:52.359Z,27.10
2024-03-05T13:01:26.781Z,25.40
2024-03-05T13:04:00.298Z,24.60
2024-03-05T13:06:34.304Z,23.90
2024-03-05T13:09:10.163Z,25.20
2024-03-05T13:11:43.892Z,25.30
2024-03-05T13:14:21.555Z,25.20
2024-03-05T13:16:56.959Z,28.60
2024-03-05T13:19:30.637Z,26.20
2024-03-05T13:22:04.157Z,25.90
2024-03-05T13:24:39.655Z,24.90
2024-03-05T13:27:13.996Z,26.80
2024-03-05T13:29:48.611Z,29.30
2024-03-05T13:32:23.483Z,26.60
2024-03-05T13:34:56.928Z,26.10
2024-03-05T13:37:30.573Z,27.40
2024-03-05T13:40:04.265Z,26.50
2024-03-05T13:42:38.383Z,28.50
2024-03-05T13:45:13.996Z,27.40
2024-03-05T13:47:48.180Z,27.10
2024-03-05T13:50:22.327Z,27.30
2024-03-05T13:52:57.229Z,26.80
2024-03-05T13:55:34.238Z,28.30
2024-03-05T13:58:08.513Z,28.10
2024-03-05T14:00:42.247Z,27.40
2024-03-05T14:03:17.509Z,29.50
2024-03-05T14:05:51.792Z,27.50
2024-03-05T14:08:25.502Z,30.10
2024-03-05T14:10:59.585Z,28.40
2024-03-05T14:13:35.340Z,28.00
2024-03-05T14:16:14.751Z,28.00
2024-03-05T14:18:50.189Z,28.60
2024-03-05T14:21:23.924Z,28.50
2024-03-05T14:23:58.204Z,28.00
2024-03-05T14:26:32.074Z,29.20
2024-03-05T14:29:06.344Z,32.90
2024-03-05T14:31:40.174Z,32.60
2024-03-05T14:34:14.915Z,30.20
2024-03-05T14:36:49.380Z,32.30
2024-03-05T14:39:23.861Z,28.20
2024-03-05T14:41:57.627Z,32.00
2024-03-05T14:44:31.200Z,32.30
2024-03-05T14:47:05.307Z,33.30
2024-03-05T14:49:39.352Z,33.10
2024-03-05T14:52:13.011Z,33.10
2024-03-05T14:54:46.609Z,34.00
2024-03-05T14:57:20.388Z,32.10
2024-03-05T14:59:54.212Z,32.20
2024-03-05T15:02:28.037Z,31.20
2024-03-05T15:05:01.486Z,32.80
2024-03-05T15:07:35.569Z,31.30
2024-03-05T15:10:13.936Z,32.60
2024-03-05T15:12:49.057Z,35.10
2024-03-05T15:15:25.416Z,36.30
2024-03-05T15:18:02.331Z,35.60
2024-03-05T15:20:37.057Z,34.10
2024-03-05T15:23:12.024Z,35.00
2024-03-05T15:25:47.106Z,32.90
2024-03-05T15:28:21.217Z,34.70
2024-03-05T15:30:55.254Z,36.70
2024-03-05T15:33:29.233Z,35.50
2024-03-05T15:36:03.295Z,35.40
2024-03-05T15:38:37.116Z,35.30
2024-03-05T15:41:11.568Z,34.90
2024-03-05T15:43:45.943Z,34.60
2024-03-05T15:46:19.816Z,35.60
2024-03-05T15:48:53.702Z,36.10
2024-03-05T15:51:28.121Z,36.80
2024-03-05T15:54:02.002Z,36.80
2024-03-05T15:56:47.018Z,38.10
2024-03-05T15:59:38.539Z,37.00
2024-03-05T16:02:12.687Z,38.40
2024-03-05T16:05:05.448Z,34.70
2024-03-05T16:07:40.751Z,37.50
2024-03-05T16:10:17.840Z,37.90
2024-03-05T16:12:51.588Z,40.10
2024-03-05T16:15:25.825Z,34.50
2024-03-05T16:18:01.165Z,38.40
2024-03-05T16:20:35.274Z,35.70
2024-03-05T16:23:09.422Z,36.20
2024-03-05T16:25:43.599Z,38.40
2024-03-05T16:28:18.957Z,40.20
2024-03-05T16:30:53.318Z,38.80
2024-03-05T16:33:27.978Z,40.70
2024-03-05T16:36:01.700Z,42.80
2024-03-05T16:38:37.537Z,42.80
2024-03-05T16:41:11.284Z,40.40
2024-03-05T16:43:45.010Z,38.60
2024-03-05T16:46:18.763Z,38.70
2024-03-05T16:48:52.887Z,38.90
2024-03-05T16:51:27.920Z,40.50
2024-03-05T16:54:01.563Z,39.40
2024-03-05T16:56:35.362Z,40.40
2024-03-05T16:59:09.297Z,43.00
2024-03-05T17:01:43.259Z,44.00
2024-03-05T17:04:22.444Z,41.10
2024-03-05T17:06:58.496Z,40.80
2024-03-05T17:12:08.129Z,42.80
2024-03-05T17:14:45.622Z,42.60
2024-03-05T17:17:19.283Z,42.60
2024-03-05T17:19:57.162Z,43.70
2024-03-05T17:22:33.042Z,40.00
2024-03-05T17:25:10.106Z,38.60
2024-03-05T17:27:43.534Z,41.10
2024-03-05T17:30:20.077Z,39.50
2024-03-05T17:32:53.765Z,39.10
2024-03-05T17:35:28.626Z,39.00
2024-03-05T17:38:06.245Z,41.10
2024-03-05T17:40:40.152Z,44.10
2024-03-05T17:43:13.714Z,43.00
2024-03-05T17:45:47.646Z,47.30
2024-03-05T17:48:22.292Z,43.10
2024-03-05T17:50:55.963Z,45.20
2024-03-05T17:53:29.476Z,41.40
2024-03-05T17:56:05.782Z,44.30
2024-03-05T17:58:39.862Z,48.60
2024-03-05T18:01:15.890Z,44.60
2024-03-05T18:03:50.303Z,47.80
2024-03-05T18:06:24.657Z,43.80
2024-03-05T18:08:58.294Z,43.60
2024-03-05T18:11:33.139Z,43.00
2024-03-05T18:14:07.239Z,43.80
2024-03-05T18:16:41.661Z,44.50
2024-03-05T18:19:15.267Z,45.70
2024-03-05T18:21:49.614Z,48.10
2024-03-05T18:24:23.188Z,47.20
2024-03-05T18:26:56.642Z,52.90
2024-03-05T18:29:31.078Z,52.80
2024-03-05T18:32:05.941Z,50.90
2024-03-05T18:34:40.210Z,54.00
2024-03-05T18:37:13.649Z,55.90
2024-03-05T18:39:47.412Z,57.10
2024-03-05T18:42:22.417Z,57.90
2024-03-05T18:44:58.976Z,55.80
2024-03-05T18:47:33.380Z,56.80
2024-03-05T18:50:08.041Z,54.30
2024-03-05T18:52:42.419Z,59.30
2024-03-05T18:55:17.223Z,56.20
2024-03-05T18:57:51.147Z,54.50
2024-03-05T19:00:25.399Z,46.60
2024-03-05T19:02:59.076Z,55.40
2024-03-05T19:05:33.418Z,55.40
2024-03-05T19:08:07.927Z,55.40
2024-03-05T19:10:42.482Z,49.10
2024-03-05T19:13:17.398Z,49.00
2024-03-05T19:15:51.597Z,50.70
2024-03-05T19:18:25.606Z,48.20
2024-03-05T19:21:01.346Z,45.10
2024-03-05T19:23:34.870Z,47.80
2024-03-05T19:26:08.766Z,41.90
2024-03-05T19:28:42.674Z,41.30
2024-03-05T19:31:16.061Z,40.90
2024-03-05T19:33:49.472Z,42.80
2024-03-05T19:36:23.147Z,43.30
2024-03-05T19:38:58.935Z,44.20
2024-03-05T19:41:35.840Z,42.90
2024-03-05T19:44:10.384Z,39.30
2024-03-05T19:46:45.603Z,40.40
2024-03-05T19:49:19.058Z,38.60
2024-03-05T19:51:53.628Z,38.20
2024-03-05T19:54:29.562Z,43.80
2024-03-05T19:57:04.994Z,43.70
2024-03-05T19:59:39.422Z,45.60
2024-03-05T20:02:17.920Z,44.40
2024-03-05T20:04:52.243Z,46.20
2024-03-05T20:07:28.643Z,46.90
2024-03-05T20:10:08.477Z,43.50
2024-03-05T20:12:41.967Z,44.00
2024-03-05T20:15:16.280Z,46.70
2024-03-05T20:17:50.167Z,46.60
2024-03-05T20:20:31.411Z,46.80
2024-03-05T20:23:18.999Z,46.00
2024-03-05T20:25:57.735Z,43.60
2024-03-05T20:28:32.909Z,44.90
2024-03-05T20:31:09.484Z,48.80
2024-03-05T20:33:45.585Z,44.00
2024-03-05T20:36:25.541Z,42.40
2024-03-05T20:39:00.209Z,41.30
2024-03-05T20:41:35.404Z,40.60
2024-03-05T20:44:09.474Z,44.90
2024-03-05T20:46:43.117Z,43.20
2024-03-05T20:49:17.955Z,42.90
2024-03-05T20:51:52.145Z,39.10
2024-03-05T20:54:25.730Z,41.20
2024-03-05T20:57:01.303Z,40.40
2024-03-05T20:59:35.525Z,37.50
2024-03-05T21:02:11.724Z,35.10
2024-03-05T21:04:47.594Z,35.90
2024-03-05T21:07:22.672Z,36.10
2024-03-05T21:09:57.569Z,37.80
2024-03-05T21:12:32.430Z,34.70
2024-03-05T21:15:06.324Z,35.10
2024-03-05T21:17:40.469Z,35.10
2024-03-05T21:20:17.559Z,35.90
2024-03-05T21:22:52.111Z,35.80
2024-03-05T21:25:27.557Z,33.20
2024-03-05T21:30:34.934Z,35.60
2024-03-05T21:33:08.943Z,38.30
2024-03-05T21:35:42.521Z,36.10
2024-03-05T21:38:16.419Z,33.80
2024-03-05T21:40:50.374Z,34.70
2024-03-05T21:43:24.375Z,34.30
2024-03-05T21:45:58.414Z,33.00
2024-03-05T21:48:32.262Z,32.50
2024-03-05T21:51:10.222Z,34.90
2024-03-05T21:53:49.477Z,34.40
2024-03-05T21:56:23.489Z,33.50
2024-03-05T21:58:57.851Z,33.80
2024-03-05T22:01:31.475Z,32.60
2024-03-05T22:04:05.524Z,33.20
2024-03-05T22:06:39.300Z,33.70
2024-03-05T22:09:13.263Z,32.40
2024-03-05T22:11:48.467Z,33.90
2024-03-05T22:14:22.379Z,32.80
2024-03-05T22:16:56.213Z,32.00
2024-03-05T22:19:30.027Z,32.80
2024-03-05T22:22:04.218Z,31.70
2024-03-05T22:24:37.606Z,32.00
2024-03-05T22:27:11.236Z,32.70
2024-03-05T22:29:55.128Z,31.80
2024-03-05T22:32:29.959Z,33.60
2024-03-05T22:35:05.176Z,35.00
2024-03-05T22:37:40.553Z,36.40
2024-03-05T22:40:15.529Z,34.50
2024-03-05T22:42:49.814Z,35.10
2024-03-05T22:45:23.949Z,35.70
2024-03-05T22:47:58.347Z,37.80
2024-03-05T22:50:32.482Z,35.60
2024-03-05T22:53:06.414Z,35.30
2024-03-05T22:55:41.023Z,37.80
2024-03-05T22:58:15.185Z,37.30
2024-03-05T23:00:52.006Z,38.60
2024-03-05T23:03:26.309Z,35.90
2024-03-05T23:06:04.944Z,39.10
2024-03-05T23:08:42.484Z,38.50
2024-03-05T23:11:16.494Z,41.10
2024-03-05T23:13:50.523Z,37.90
2024-03-05T23:16:24.285Z,40.40
2024-03-05T23:18:58.149Z,38.80
2024-03-05T23:21:32.733Z,38.40
2024-03-05T23:24:07.409Z,36.90
2024-03-05T23:26:41.241Z,36.80
2024-03-05T23:29:15.309Z,36.90
2024-03-05T23:31:49.338Z,35.50
2024-03-05T23:34:23.056Z,37.00
2024-03-05T23:36:57.218Z,37.30
2024-03-05T23:39:31.261Z,36.10
2024-03-05T23:42:06.170Z,37.30
2024-03-05T23:44:42.146Z,38.00
2024-03-05T23:47:16.072Z,35.90
2024-03-05T23:49:50.395Z,38.60
2024-03-05T23:52:24.872Z,38.70
2024-03-05T23:55:02.221Z,39.10
2024-03-05T23:57:36.823Z,38.10
